Time;durP1;ratioP1;P1;durP2;ratioP2;P2;SDS_P1;SDS_P2;PMS_P1;PMS_P2;Temp;Humidity;BMP_temperature;BMP_pressure;BME280_temperature;BME280_humidity;BME280_pressure;Samples;Min_cycle;Max_cycle;Signal;HPM_P1;HPM_P2
2023/04/10 00:02:18;;;;;;;17.53;10.13;;;;;;;;;;4957370;28;20202;-72
2023/04/10 00:04:45;;;;;;;18.97;10.50;;;;;;;;;;4959410;28;20209;-72
2023/04/10 00:07:11;;;;;;;17.13;9.63;;;;;;;;;;4961148;28;20256;-72
2023/04/10 00:09:38;;;;;;;19.30;10.83;;;;;;;;;;4969403;28;20505;-72
2023/04/10 00:12:05;;;;;;;16.17;10.03;;;;;;;;;;4960956;28;20825;-72
2023/04/10 00:14:31;;;;;;;17.80;9.73;;;;;;;;;;4961694;28;20224;-72
2023/04/10 00:16:57;;;;;;;19.10;9.17;;;;;;;;;;4958280;28;20229;-72
2023/04/10 00:19:25;;;;;;;15.93;10.17;;;;;;;;;;4957092;28;20828;-72
2023/04/10 00:21:51;;;;;;;18.30;9.97;;;;;;;;;;4963310;28;20205;-72
2023/04/10 00:24:17;;;;;;;19.10;10.30;;;;;;;;;;4962685;28;20534;-74
2023/04/10 00:26:43;;;;;;;18.40;10.50;;;;;;;;;;4966587;28;20603;-71
2023/04/10 00:29:09;;;;;;;16.20;10.20;;;;;;;;;;4956820;28;20453;-73
2023/04/10 00:31:36;;;;;;;20.50;10.17;;;;;;;;;;4939080;28;20214;-73
2023/04/10 00:34:04;;;;;;;17.60;11.23;;;;;;;;;;4945738;28;20672;-73
2023/04/10 00:36:32;;;;;;;17.47;10.53;;;;;;;;;;4966305;28;20753;-73
2023/04/10 00:38:58;;;;;;;21.97;10.60;;;;;;;;;;4960075;28;20217;-73
2023/04/10 00:41:25;;;;;;;19.90;10.50;;;;;;;;;;4953274;28;20222;-73
2023/04/10 00:43:55;;;;;;;17.17;10.77;;;;;;;;;;4961059;28;20220;-73
2023/04/10 00:46:21;;;;;;;20.13;11.30;;;;;;;;;;4961243;28;20677;-73
2023/04/10 00:48:47;;;;;;;18.97;10.07;;;;;;;;;;4961676;28;20315;-73
2023/04/10 00:51:14;;;;;;;16.13;8.97;;;;;;;;;;4942233;28;20301;-74
2023/04/10 00:53:42;;;;;;;17.70;10.87;;;;;;;;;;4945636;28;20201;-73
2023/04/10 00:56:08;;;;;;;16.20;9.23;;;;;;;;;;4962315;28;20219;-73
2023/04/10 00:58:34;;;;;;;15.30;9.33;;;;;;;;;;4961115;28;20241;-73
2023/04/10 01:01:02;;;;;;;15.50;9.17;;;;;;;;;;4960210;28;20206;-73
2023/04/10 01:03:29;;;;;;;15.73;9.17;;;;;;;;;;4940456;28;20210;-73
2023/04/10 01:06:00;;;;;;;17.20;9.27;;;;;;;;;;4947744;28;20205;-73
2023/04/10 01:08:35;;;;;;;21.60;10.40;;;;;;;;;;4965286;28;20340;-73
2023/04/10 01:11:08;;;;;;;11.83;7.77;;;;;;;;;;4955306;28;20636;-73
2023/04/10 01:13:41;;;;;;;15.83;9.37;;;;;;;;;;4954700;28;20306;-73
2023/04/10 01:16:11;;;;;;;16.43;9.03;;;;;;;;;;4943400;28;20528;-73
2023/04/10 01:18:41;;;;;;;13.83;8.37;;;;;;;;;;4960439;28;20569;-73
2023/04/10 01:21:09;;;;;;;13.70;8.23;;;;;;;;;;4944859;28;20629;-73
2023/04/10 01:23:53;;;;;;;16.90;9.47;;;;;;;;;;4943594;28;20690;-73
2023/04/10 01:26:32;;;;;;;21.77;10.60;;;;;;;;;;4946438;28;20574;-72
2023/04/10 01:29:00;;;;;;;26.10;12.87;;;;;;;;;;4945333;28;20236;-71
2023/04/10 01:31:54;;;;;;;24.17;12.47;;;;;;;;;;4960982;28;20863;-71
2023/04/10 01:34:23;;;;;;;20.70;11.90;;;;;;;;;;4936522;28;20218;-72
2023/04/10 01:36:53;;;;;;;28.23;13.00;;;;;;;;;;4942591;28;20496;-71
2023/04/10 01:39:20;;;;;;;19.00;12.43;;;;;;;;;;4958963;28;20222;-71
2023/04/10 01:41:48;;;;;;;20.63;12.27;;;;;;;;;;4963858;28;20562;-71
2023/04/10 01:44:17;;;;;;;28.23;14.20;;;;;;;;;;4946783;28;20289;-72
2023/04/10 01:46:44;;;;;;;20.77;11.63;;;;;;;;;;4946988;28;20295;-73
2023/04/10 01:49:11;;;;;;;22.67;12.80;;;;;;;;;;4960064;28;20749;-71
2023/04/10 01:51:39;;;;;;;16.70;11.47;;;;;;;;;;4945747;28;20224;-73
2023/04/10 01:54:10;;;;;;;28.63;14.27;;;;;;;;;;4941179;28;20697;-73
2023/04/10 01:56:37;;;;;;;25.37;13.83;;;;;;;;;;4944222;28;20214;-73
2023/04/10 01:59:04;;;;;;;27.90;14.13;;;;;;;;;;4956909;28;20519;-71
2023/04/10 02:01:32;;;;;;;25.40;13.27;;;;;;;;;;4946157;28;20216;-71
2023/04/10 02:03:58;;;;;;;24.67;13.20;;;;;;;;;;4938005;28;20198;-72
2023/04/10 02:06:27;;;;;;;24.47;13.40;;;;;;;;;;4952609;28;20760;-71
2023/04/10 02:08:56;;;;;;;22.27;12.53;;;;;;;;;;4958379;28;20581;-71
2023/04/10 02:11:26;;;;;;;31.97;13.27;;;;;;;;;;4958584;28;20246;-71
2023/04/10 02:13:53;;;;;;;21.50;12.37;;;;;;;;;;4936429;28;20226;-72
2023/04/10 02:16:21;;;;;;;21.23;12.90;;;;;;;;;;4959280;28;20713;-71
2023/04/10 02:18:49;;;;;;;19.63;11.90;;;;;;;;;;4959081;28;20264;-72
2023/04/10 02:21:16;;;;;;;20.10;11.63;;;;;;;;;;4941182;28;20225;-71
2023/04/10 02:23:42;;;;;;;20.70;12.43;;;;;;;;;;4959450;28;20696;-72
2023/04/10 02:26:09;;;;;;;19.13;11.63;;;;;;;;;;4967798;28;20666;-71
2023/04/10 02:28:37;;;;;;;19.30;11.33;;;;;;;;;;4962362;28;20585;-71
2023/04/10 02:31:06;;;;;;;22.43;13.07;;;;;;;;;;4950184;28;20205;-71
2023/04/10 02:33:32;;;;;;;21.70;13.40;;;;;;;;;;4947940;28;20575;-71
2023/04/10 02:36:01;;;;;;;21.70;13.40;;;;;;;;;;4962891;28;20209;-71
2023/04/10 02:38:28;;;;;;;21.50;12.70;;;;;;;;;;4958135;28;20303;-71
2023/04/10 02:40:55;;;;;;;21.47;12.83;;;;;;;;;;4948102;28;20217;-71
2023/04/10 02:43:21;;;;;;;24.77;13.80;;;;;;;;;;4942995;28;20304;-72
2023/04/10 02:45:47;;;;;;;23.93;14.23;;;;;;;;;;4950757;28;20226;-72
2023/04/10 02:48:20;;;;;;;24.30;13.67;;;;;;;;;;4945566;28;20228;-72
2023/04/10 02:50:55;;;;;;;25.00;13.73;;;;;;;;;;4942197;28;20254;-71
2023/04/10 02:53:24;;;;;;;27.33;15.10;;;;;;;;;;4962347;28;20519;-72
2023/04/10 02:55:54;;;;;;;30.73;15.23;;;;;;;;;;4944212;28;20304;-71
2023/04/10 02:58:21;;;;;;;25.77;13.70;;;;;;;;;;4966088;28;20233;-72
2023/04/10 03:00:49;;;;;;;28.93;15.10;;;;;;;;;;4964355;28;20442;-71
2023/04/10 03:03:36;;;;;;;31.50;14.63;;;;;;;;;;4956175;28;20764;-71
2023/04/10 03:06:02;;;;;;;26.80;14.93;;;;;;;;;;4943036;28;20210;-72
2023/04/10 03:08:33;;;;;;;23.10;14.57;;;;;;;;;;4948162;28;20316;-71
2023/04/10 03:10:59;;;;;;;27.03;14.87;;;;;;;;;;4962647;28;20576;-71
2023/04/10 03:13:25;;;;;;;29.40;15.60;;;;;;;;;;4965198;28;21266;-71
2023/04/10 03:15:52;;;;;;;30.47;17.33;;;;;;;;;;4965188;28;20560;-72
2023/04/10 03:18:18;;;;;;;33.60;18.43;;;;;;;;;;4947462;28;20800;-71
2023/04/10 03:20:48;;;;;;;32.47;19.17;;;;;;;;;;4962628;28;20222;-71
2023/04/10 03:23:14;;;;;;;33.03;19.37;;;;;;;;;;4946813;28;20222;-71
2023/04/10 03:25:43;;;;;;;31.33;17.33;;;;;;;;;;4963624;28;20588;-71
2023/04/10 03:28:10;;;;;;;25.00;14.67;;;;;;;;;;4947223;28;20225;-71
2023/04/10 03:30:37;;;;;;;29.00;15.20;;;;;;;;;;4941042;28;20224;-71
2023/04/10 03:33:09;;;;;;;28.53;15.23;;;;;;;;;;4952523;28;20784;-71
2023/04/10 03:35:35;;;;;;;29.90;14.60;;;;;;;;;;4957596;28;20214;-72
2023/04/10 03:38:01;;;;;;;24.57;14.23;;;;;;;;;;4943262;28;20224;-71
2023/04/10 03:40:33;;;;;;;27.67;14.87;;;;;;;;;;4961343;28;20233;-72
2023/04/10 03:43:04;;;;;;;24.30;13.53;;;;;;;;;;4966203;28;20206;-72
2023/04/10 03:45:34;;;;;;;24.33;14.57;;;;;;;;;;4957890;28;20212;-71
2023/04/10 03:48:00;;;;;;;26.17;13.87;;;;;;;;;;4961954;28;20226;-72
2023/04/10 03:50:40;;;;;;;29.70;16.87;;;;;;;;;;4946919;28;20205;-72
2023/04/10 03:53:06;;;;;;;42.00;23.40;;;;;;;;;;4950317;28;20427;-72
2023/04/10 03:55:35;;;;;;;41.07;20.97;;;;;;;;;;4960610;28;20213;-72
2023/04/10 03:58:02;;;;;;;54.30;27.90;;;;;;;;;;4946341;28;20238;-72
2023/04/10 04:00:33;;;;;;;50.67;25.10;;;;;;;;;;4940570;28;20672;-72
2023/04/10 04:03:08;;;;;;;36.50;19.10;;;;;;;;;;4950693;28;20206;-72
2023/04/10 04:05:55;;;;;;;29.10;17.13;;;;;;;;;;4950291;28;21001;-72
2023/04/10 04:08:26;;;;;;;41.47;22.83;;;;;;;;;;4947844;28;20236;-72
2023/04/10 04:11:06;;;;;;;31.17;17.93;;;;;;;;;;4957523;28;20221;-72
2023/04/10 04:13:36;;;;;;;29.10;15.07;;;;;;;;;;4934403;28;20225;-71
2023/04/10 04:16:09;;;;;;;28.80;17.03;;;;;;;;;;4938860;28;20218;-71
2023/04/10 04:18:52;;;;;;;28.20;15.93;;;;;;;;;;4940164;28;20230;-72
2023/04/10 04:21:27;;;;;;;37.70;18.97;;;;;;;;;;4943473;28;20209;-72
2023/04/10 04:24:20;;;;;;;30.87;16.67;;;;;;;;;;4939687;28;20729;-72
2023/04/10 04:27:09;;;;;;;28.03;15.97;;;;;;;;;;4964792;28;20318;-71
2023/04/10 04:29:47;;;;;;;30.37;15.83;;;;;;;;;;4959084;28;20238;-72
2023/04/10 04:32:20;;;;;;;24.97;14.30;;;;;;;;;;4947474;28;20297;-72
2023/04/10 04:34:56;;;;;;;24.50;13.53;;;;;;;;;;4938440;28;20202;-71
2023/04/10 04:37:35;;;;;;;25.07;14.00;;;;;;;;;;4955830;28;20313;-71
2023/04/10 04:40:30;;;;;;;19.53;12.13;;;;;;;;;;4916121;28;20224;-71
2023/04/10 04:43:17;;;;;;;23.70;13.03;;;;;;;;;;4958742;28;20227;-71
2023/04/10 04:46:15;;;;;;;19.37;12.43;;;;;;;;;;4942791;28;20714;-71
2023/04/10 04:49:00;;;;;;;19.90;12.63;;;;;;;;;;4940058;28;20366;-71
2023/04/10 04:51:51;;;;;;;22.93;12.73;;;;;;;;;;4958057;28;20209;-71
2023/04/10 04:54:49;;;;;;;20.50;12.33;;;;;;;;;;4950925;28;20214;-71
2023/04/10 04:57:36;;;;;;;23.87;12.87;;;;;;;;;;4954668;28;20216;-71
2023/04/10 05:00:06;;;;;;;24.87;12.80;;;;;;;;;;4961038;28;20216;-71
2023/04/10 05:02:54;;;;;;;23.47;12.57;;;;;;;;;;4957820;28;20241;-71
2023/04/10 05:05:43;;;;;;;21.33;13.03;;;;;;;;;;4951096;28;20293;-71
2023/04/10 05:08:22;;;;;;;21.17;12.53;;;;;;;;;;4955652;28;20238;-71
2023/04/10 05:11:01;;;;;;;20.97;11.97;;;;;;;;;;4941011;28;20292;-71
2023/04/10 05:13:53;;;;;;;24.20;13.53;;;;;;;;;;4956125;28;20205;-71
2023/04/10 05:16:33;;;;;;;26.30;13.87;;;;;;;;;;4955074;28;20211;-71
2023/04/10 05:19:22;;;;;;;21.07;12.73;;;;;;;;;;4931415;28;20238;-71
2023/04/10 05:21:56;;;;;;;23.70;12.47;;;;;;;;;;4945571;28;20929;-71
2023/04/10 05:24:32;;;;;;;25.80;14.60;;;;;;;;;;4958853;28;20727;-71
2023/04/10 05:27:13;;;;;;;25.53;14.90;;;;;;;;;;4947627;28;20359;-71
2023/04/10 05:29:59;;;;;;;34.93;19.33;;;;;;;;;;4961371;28;20213;-71
2023/04/10 05:32:51;;;;;;;24.13;13.37;;;;;;;;;;4940933;28;20765;-71
2023/04/10 05:35:22;;;;;;;22.77;12.57;;;;;;;;;;4937004;28;20213;-71
2023/04/10 05:37:59;;;;;;;22.20;13.60;;;;;;;;;;4940573;28;20666;-71
2023/04/10 05:40:45;;;;;;;24.30;13.60;;;;;;;;;;4939876;28;20210;-71
2023/04/10 05:43:36;;;;;;;26.43;13.23;;;;;;;;;;4961302;28;20205;-71
2023/04/10 05:46:11;;;;;;;27.33;13.73;;;;;;;;;;4953974;28;20216;-71
2023/04/10 05:48:50;;;;;;;24.03;13.77;;;;;;;;;;4955927;28;20381;-71
2023/04/10 05:51:22;;;;;;;22.20;12.90;;;;;;;;;;4938375;28;20206;-71
2023/04/10 05:54:28;;;;;;;22.40;12.90;;;;;;;;;;4881297;29;20681;-71
2023/04/10 05:57:10;;;;;;;30.13;15.13;;;;;;;;;;4879822;29;20361;-72
2023/04/10 05:59:55;;;;;;;27.83;14.60;;;;;;;;;;4936170;28;20319;-71
2023/04/10 06:02:42;;;;;;;28.50;15.30;;;;;;;;;;4947698;28;20209;-71
2023/04/10 06:05:16;;;;;;;32.13;15.77;;;;;;;;;;4936964;28;20588;-71
2023/04/10 06:07:43;;;;;;;28.73;16.00;;;;;;;;;;4951920;28;20223;-71
2023/04/10 06:10:11;;;;;;;32.80;15.90;;;;;;;;;;4938912;28;20211;-71
2023/04/10 06:12:39;;;;;;;32.23;16.20;;;;;;;;;;4935788;28;20605;-71
2023/04/10 06:15:08;;;;;;;29.43;15.77;;;;;;;;;;4951972;28;20213;-72
2023/04/10 06:17:40;;;;;;;34.00;17.03;;;;;;;;;;4936783;28;20198;-71
2023/04/10 06:20:07;;;;;;;32.30;17.43;;;;;;;;;;4950946;28;20230;-71
2023/04/10 06:22:34;;;;;;;33.73;16.67;;;;;;;;;;4952384;28;20225;-71
2023/04/10 06:25:00;;;;;;;30.30;17.03;;;;;;;;;;4942051;28;20585;-71
2023/04/10 06:27:53;;;;;;;37.67;18.57;;;;;;;;;;4950389;28;20805;-71
2023/04/10 06:30:19;;;;;;;32.23;18.17;;;;;;;;;;4939955;28;20210;-71
2023/04/10 06:32:46;;;;;;;36.70;17.80;;;;;;;;;;4950952;28;20562;-71
2023/04/10 06:35:13;;;;;;;36.10;18.67;;;;;;;;;;4952252;28;20247;-71
2023/04/10 06:37:39;;;;;;;36.30;18.70;;;;;;;;;;4932969;28;21039;-71
2023/04/10 06:40:06;;;;;;;33.87;18.53;;;;;;;;;;4939954;28;20230;-71
2023/04/10 06:42:33;;;;;;;35.13;18.60;;;;;;;;;;4937209;28;20255;-71
2023/04/10 06:45:08;;;;;;;35.67;19.63;;;;;;;;;;4937921;28;20739;-71
2023/04/10 06:47:35;;;;;;;42.93;21.47;;;;;;;;;;4936438;28;20222;-71
2023/04/10 06:50:02;;;;;;;37.27;19.23;;;;;;;;;;4946774;28;20233;-71
2023/04/10 06:52:33;;;;;;;40.83;20.07;;;;;;;;;;4951716;28;20202;-71
2023/04/10 06:54:59;;;;;;;35.03;18.93;;;;;;;;;;4953103;28;20253;-71
2023/04/10 06:57:27;;;;;;;39.23;18.47;;;;;;;;;;4949476;28;20234;-71
2023/04/10 06:59:53;;;;;;;42.90;20.43;;;;;;;;;;4956411;28;20908;-71
2023/04/10 07:02:21;;;;;;;45.63;20.23;;;;;;;;;;4950638;28;20948;-71
2023/04/10 07:04:47;;;;;;;40.17;19.20;;;;;;;;;;4942120;28;20226;-71
2023/04/10 07:07:14;;;;;;;39.77;19.27;;;;;;;;;;4950051;28;20217;-71
2023/04/10 07:09:42;;;;;;;36.03;18.80;;;;;;;;;;4946675;28;20300;-72
2023/04/10 07:12:08;;;;;;;36.73;18.83;;;;;;;;;;4957530;28;20212;-71
2023/04/10 07:14:35;;;;;;;40.53;18.97;;;;;;;;;;4956425;28;20244;-71
2023/04/10 07:17:01;;;;;;;36.03;17.33;;;;;;;;;;4946947;28;20531;-72
2023/04/10 07:19:32;;;;;;;35.73;18.07;;;;;;;;;;4946794;28;20272;-71
2023/04/10 07:21:59;;;;;;;28.60;16.37;;;;;;;;;;4960821;28;20228;-71
2023/04/10 07:24:26;;;;;;;31.80;15.63;;;;;;;;;;4954319;28;20212;-71
2023/04/10 07:26:52;;;;;;;28.60;14.40;;;;;;;;;;4949056;28;20282;-72
2023/04/10 07:29:18;;;;;;;22.77;13.23;;;;;;;;;;4945692;28;20831;-71
2023/04/10 07:31:44;;;;;;;24.77;13.20;;;;;;;;;;4947163;28;20211;-71
2023/04/10 07:34:11;;;;;;;30.03;15.40;;;;;;;;;;4950241;28;20743;-72
2023/04/10 07:36:39;;;;;;;21.97;12.93;;;;;;;;;;4933211;28;20208;-71
2023/04/10 07:39:05;;;;;;;25.67;13.73;;;;;;;;;;4951439;28;20229;-72
2023/04/10 07:41:31;;;;;;;18.43;11.93;;;;;;;;;;4948281;28;20221;-71
2023/04/10 07:43:57;;;;;;;22.10;12.93;;;;;;;;;;4952269;28;20525;-72
2023/04/10 07:46:24;;;;;;;18.63;12.30;;;;;;;;;;4952256;28;20221;-71
2023/04/10 07:48:54;;;;;;;19.17;11.37;;;;;;;;;;4948169;28;20227;-71
2023/04/10 07:51:21;;;;;;;23.60;13.53;;;;;;;;;;4949007;28;20291;-71
2023/04/10 07:53:48;;;;;;;18.90;12.17;;;;;;;;;;4951237;28;20211;-71
2023/04/10 07:56:15;;;;;;;20.00;12.07;;;;;;;;;;4952733;28;20206;-71
2023/04/10 07:58:42;;;;;;;22.03;12.80;;;;;;;;;;4947694;28;20237;-72
2023/04/10 08:01:08;;;;;;;20.80;12.20;;;;;;;;;;4941387;28;20227;-72
2023/04/10 08:03:37;;;;;;;22.80;12.67;;;;;;;;;;4952948;28;20690;-72
2023/04/10 08:06:07;;;;;;;23.40;12.97;;;;;;;;;;4946642;28;20207;-71
2023/04/10 08:08:34;;;;;;;22.27;13.13;;;;;;;;;;4946990;28;20288;-72
2023/04/10 08:11:01;;;;;;;26.40;12.77;;;;;;;;;;4946719;28;20206;-72
2023/04/10 08:13:28;;;;;;;24.10;14.00;;;;;;;;;;4949412;28;20201;-72
2023/04/10 08:15:54;;;;;;;20.40;12.00;;;;;;;;;;4945776;28;20216;-71
2023/04/10 08:18:20;;;;;;;23.67;12.93;;;;;;;;;;4948005;28;20238;-71
2023/04/10 08:20:46;;;;;;;21.37;12.80;;;;;;;;;;4946906;28;20660;-72
2023/04/10 08:23:12;;;;;;;22.77;12.33;;;;;;;;;;4951578;28;20212;-72
2023/04/10 08:25:39;;;;;;;22.67;12.90;;;;;;;;;;4944068;28;20213;-72
2023/04/10 08:28:06;;;;;;;21.00;12.77;;;;;;;;;;4948052;28;20237;-71
2023/04/10 08:30:32;;;;;;;23.17;12.93;;;;;;;;;;4944136;28;20263;-72
2023/04/10 08:32:59;;;;;;;18.73;12.07;;;;;;;;;;4943673;28;20245;-71
2023/04/10 08:35:25;;;;;;;20.80;12.83;;;;;;;;;;4943955;28;20912;-71
2023/04/10 08:37:56;;;;;;;20.83;12.83;;;;;;;;;;4948364;28;20233;-71
2023/04/10 08:40:22;;;;;;;22.37;12.13;;;;;;;;;;4942639;28;20229;-71
2023/04/10 08:42:48;;;;;;;22.73;13.77;;;;;;;;;;4948111;28;20566;-71
2023/04/10 08:45:16;;;;;;;22.23;11.60;;;;;;;;;;4946136;28;20224;-71
2023/04/10 08:47:43;;;;;;;18.70;11.57;;;;;;;;;;4952238;28;20210;-71
2023/04/10 08:50:10;;;;;;;24.30;14.10;;;;;;;;;;4940758;28;21780;-71
2023/04/10 08:52:38;;;;;;;26.27;14.77;;;;;;;;;;4952864;28;20214;-72
2023/04/10 08:55:07;;;;;;;24.97;13.77;;;;;;;;;;4953430;28;20213;-71
2023/04/10 08:57:37;;;;;;;20.33;12.53;;;;;;;;;;4958773;28;20261;-72
2023/04/10 09:00:09;;;;;;;19.37;13.07;;;;;;;;;;4952043;28;20226;-72
2023/04/10 09:02:40;;;;;;;20.80;13.30;;;;;;;;;;4947480;28;20220;-72
2023/04/10 09:05:10;;;;;;;21.90;12.83;;;;;;;;;;4946483;28;20217;-72
2023/04/10 09:07:36;;;;;;;22.63;13.53;;;;;;;;;;4953149;28;20211;-72
2023/04/10 09:10:03;;;;;;;24.43;14.03;;;;;;;;;;4956400;28;20304;-72
2023/04/10 09:12:29;;;;;;;22.73;12.50;;;;;;;;;;4951675;28;20218;-72
2023/04/10 09:14:56;;;;;;;22.30;13.30;;;;;;;;;;4945013;28;20202;-72
2023/04/10 09:17:23;;;;;;;23.37;13.53;;;;;;;;;;4952269;28;20218;-71
2023/04/10 09:19:52;;;;;;;23.63;13.87;;;;;;;;;;4950010;28;20225;-72
2023/04/10 09:22:19;;;;;;;25.80;13.93;;;;;;;;;;4955415;28;20256;-71
2023/04/10 09:24:50;;;;;;;21.83;13.20;;;;;;;;;;4946942;28;20725;-71
2023/04/10 09:27:31;;;;;;;23.77;13.37;;;;;;;;;;4950735;28;20206;-72
2023/04/10 09:29:57;;;;;;;22.27;13.50;;;;;;;;;;4951055;28;20765;-71
2023/04/10 09:32:36;;;;;;;21.13;13.03;;;;;;;;;;4954520;28;20610;-71
2023/04/10 09:35:04;;;;;;;22.30;13.50;;;;;;;;;;4944976;28;20217;-72
2023/04/10 09:37:56;;;;;;;22.53;12.90;;;;;;;;;;4950073;28;20252;-72
2023/04/10 09:40:24;;;;;;;24.53;14.13;;;;;;;;;;4952410;28;20771;-71
2023/04/10 09:42:52;;;;;;;24.57;13.57;;;;;;;;;;4951095;28;20216;-72
2023/04/10 09:45:19;;;;;;;25.07;14.10;;;;;;;;;;4947147;28;21092;-72
2023/04/10 09:48:01;;;;;;;24.93;13.47;;;;;;;;;;4950243;28;20718;-72
2023/04/10 09:50:36;;;;;;;24.23;14.37;;;;;;;;;;4942786;28;20730;-71
2023/04/10 09:53:02;;;;;;;27.60;14.60;;;;;;;;;;4954813;28;21354;-71
2023/04/10 09:55:30;;;;;;;25.67;14.80;;;;;;;;;;4944350;28;20260;-72
2023/04/10 09:57:57;;;;;;;22.07;12.87;;;;;;;;;;4950379;28;20661;-72
2023/04/10 10:00:24;;;;;;;25.10;13.53;;;;;;;;;;4953962;28;20226;-72
2023/04/10 10:02:51;;;;;;;20.00;13.20;;;;;;;;;;4945206;28;20564;-72
2023/04/10 10:05:19;;;;;;;23.50;13.67;;;;;;;;;;4945995;28;20217;-72
2023/04/10 10:07:46;;;;;;;23.17;12.87;;;;;;;;;;4951315;28;20256;-72
2023/04/10 10:10:12;;;;;;;22.33;13.33;;;;;;;;;;4953816;28;20521;-71
2023/04/10 10:12:43;;;;;;;21.03;13.47;;;;;;;;;;4951432;28;20206;-72
2023/04/10 10:15:11;;;;;;;21.37;13.27;;;;;;;;;;4949047;28;20206;-72
2023/04/10 10:17:39;;;;;;;21.20;13.23;;;;;;;;;;4952742;28;20225;-72
2023/04/10 10:20:08;;;;;;;23.47;13.87;;;;;;;;;;4951554;28;20323;-71
2023/04/10 10:22:35;;;;;;;22.20;13.03;;;;;;;;;;4949362;28;20271;-71
2023/04/10 10:25:03;;;;;;;20.13;12.37;;;;;;;;;;4948334;28;20217;-72
2023/04/10 10:27:31;;;;;;;22.87;11.70;;;;;;;;;;4953277;28;20209;-71
2023/04/10 10:29:59;;;;;;;19.73;11.77;;;;;;;;;;4947983;28;20209;-72
2023/04/10 10:32:26;;;;;;;19.00;10.63;;;;;;;;;;4948328;28;20214;-72
2023/04/10 10:34:53;;;;;;;17.87;11.37;;;;;;;;;;4946883;28;20687;-71
2023/04/10 10:37:20;;;;;;;19.53;11.03;;;;;;;;;;4936397;28;20213;-72
2023/04/10 10:39:49;;;;;;;18.87;10.13;;;;;;;;;;4951429;28;20226;-71
2023/04/10 10:42:20;;;;;;;15.47;9.83;;;;;;;;;;4964193;28;20295;-72
2023/04/10 10:44:48;;;;;;;16.90;10.33;;;;;;;;;;4961859;28;20199;-72
2023/04/10 10:47:15;;;;;;;17.00;9.63;;;;;;;;;;4960493;28;20640;-72
2023/04/10 10:49:51;;;;;;;15.83;10.07;;;;;;;;;;4956900;28;20229;-72
2023/04/10 10:52:33;;;;;;;14.83;9.60;;;;;;;;;;4956322;28;20241;-72
2023/04/10 10:54:59;;;;;;;15.73;9.17;;;;;;;;;;4952820;28;20209;-72
2023/04/10 10:57:44;;;;;;;16.77;9.33;;;;;;;;;;4955136;28;20701;-72
2023/04/10 11:00:12;;;;;;;15.80;9.60;;;;;;;;;;4956030;28;20308;-72
2023/04/10 11:02:39;;;;;;;14.97;9.37;;;;;;;;;;4958208;28;20252;-72
2023/04/10 11:05:05;;;;;;;13.53;9.07;;;;;;;;;;4945453;28;20223;-72
2023/04/10 11:08:05;;;;;;;13.93;8.47;;;;;;;;;;4954142;28;20213;-72
2023/04/10 11:11:01;;;;;;;12.50;8.23;;;;;;;;;;4955244;28;20221;-70
2023/04/10 11:13:30;;;;;;;10.87;7.27;;;;;;;;;;4957610;28;20217;-69
2023/04/10 11:15:58;;;;;;;13.40;7.67;;;;;;;;;;4952844;28;20256;-70
2023/04/10 11:18:39;;;;;;;9.73;7.20;;;;;;;;;;4954259;28;20292;-70
2023/04/10 11:21:09;;;;;;;11.27;7.33;;;;;;;;;;4952231;28;20309;-69
2023/04/10 11:23:36;;;;;;;12.57;7.53;;;;;;;;;;4948708;28;20267;-69
2023/04/10 11:26:02;;;;;;;12.03;7.40;;;;;;;;;;4952765;28;20749;-69
2023/04/10 11:28:33;;;;;;;10.10;6.53;;;;;;;;;;4956431;28;20223;-70
2023/04/10 11:31:15;;;;;;;11.00;7.20;;;;;;;;;;4955966;28;20207;-70
2023/04/10 11:33:42;;;;;;;13.57;7.90;;;;;;;;;;4951482;28;20701;-68
2023/04/10 11:36:08;;;;;;;10.53;6.93;;;;;;;;;;4955556;28;20761;-70
2023/04/10 11:38:35;;;;;;;7.53;5.40;;;;;;;;;;4955677;28;20231;-69
2023/04/10 11:41:02;;;;;;;10.53;5.83;;;;;;;;;;4955279;28;20217;-70
2023/04/10 11:43:29;;;;;;;8.57;5.90;;;;;;;;;;4956528;28;20205;-69
2023/04/10 11:45:59;;;;;;;8.87;5.43;;;;;;;;;;4953041;28;20214;-70
2023/04/10 11:48:27;;;;;;;9.03;5.90;;;;;;;;;;4957844;28;20236;-68
2023/04/10 11:50:53;;;;;;;9.13;6.03;;;;;;;;;;4951319;28;20209;-70
2023/04/10 11:53:20;;;;;;;9.10;6.20;;;;;;;;;;4958301;28;20232;-70
2023/04/10 11:55:46;;;;;;;8.47;6.30;;;;;;;;;;4938665;28;20213;-70
2023/04/10 11:58:22;;;;;;;8.10;5.83;;;;;;;;;;4964678;28;20232;-70
2023/04/10 12:00:55;;;;;;;11.17;6.80;;;;;;;;;;4954234;28;20225;-69
2023/04/10 12:03:31;;;;;;;10.37;6.50;;;;;;;;;;4954173;28;20394;-71
2023/04/10 12:05:58;;;;;;;7.93;6.03;;;;;;;;;;4945081;28;20723;-69
2023/04/10 12:08:30;;;;;;;9.23;5.70;;;;;;;;;;4954840;28;20222;-70
2023/04/10 12:10:56;;;;;;;8.30;5.80;;;;;;;;;;4951620;28;20206;-70
2023/04/10 12:13:25;;;;;;;10.73;6.53;;;;;;;;;;4953185;28;20211;-69
2023/04/10 12:15:51;;;;;;;8.20;6.00;;;;;;;;;;4945512;28;20206;-69
2023/04/10 12:18:18;;;;;;;7.90;5.33;;;;;;;;;;4953390;28;20225;-69
2023/04/10 12:20:45;;;;;;;7.80;5.47;;;;;;;;;;4955334;28;20815;-68
2023/04/10 12:23:12;;;;;;;7.67;5.60;;;;;;;;;;4955610;28;20272;-70
2023/04/10 12:25:38;;;;;;;7.87;5.43;;;;;;;;;;4952562;28;20216;-70
2023/04/10 12:28:05;;;;;;;10.87;5.83;;;;;;;;;;4953273;28;21805;-70
2023/04/10 12:30:31;;;;;;;7.30;5.00;;;;;;;;;;4958987;28;20226;-69
2023/04/10 12:33:02;;;;;;;6.20;4.50;;;;;;;;;;4953018;28;20201;-70
2023/04/10 12:35:40;;;;;;;8.53;5.43;;;;;;;;;;4947491;28;20224;-69
2023/04/10 12:38:07;;;;;;;6.97;4.97;;;;;;;;;;4956025;28;21603;-69
2023/04/10 12:40:33;;;;;;;7.93;4.93;;;;;;;;;;4956192;28;20202;-69
2023/04/10 12:43:00;;;;;;;7.47;5.33;;;;;;;;;;4954904;28;20213;-70
2023/04/10 12:45:41;;;;;;;5.93;4.90;;;;;;;;;;4953209;28;20206;-70
2023/04/10 12:48:07;;;;;;;7.03;5.03;;;;;;;;;;4958972;28;20229;-69
2023/04/10 12:50:45;;;;;;;6.43;4.60;;;;;;;;;;4950305;28;20482;-69
2023/04/10 12:53:13;;;;;;;7.73;5.10;;;;;;;;;;4956471;28;20221;-69
2023/04/10 12:55:42;;;;;;;9.17;4.87;;;;;;;;;;4954932;28;20205;-69
2023/04/10 12:58:18;;;;;;;7.03;5.20;;;;;;;;;;4957372;28;20225;-70
2023/04/10 13:00:45;;;;;;;6.23;4.80;;;;;;;;;;4954343;28;20593;-70
2023/04/10 13:03:11;;;;;;;7.20;5.03;;;;;;;;;;4957552;28;20301;-68
2023/04/10 13:05:37;;;;;;;8.73;5.10;;;;;;;;;;4950295;28;20221;-68
2023/04/10 13:08:04;;;;;;;5.43;4.40;;;;;;;;;;4954116;28;20652;-69
2023/04/10 13:11:01;;;;;;;6.97;4.90;;;;;;;;;;4965667;28;20209;-69
2023/04/10 13:13:52;;;;;;;6.47;4.73;;;;;;;;;;4962672;28;20217;-69
2023/04/10 13:16:19;;;;;;;5.97;4.97;;;;;;;;;;4961725;28;20214;-67
2023/04/10 13:18:45;;;;;;;7.70;5.17;;;;;;;;;;4964999;28;20613;-69
2023/04/10 13:21:11;;;;;;;6.53;4.43;;;;;;;;;;4961712;28;20217;-68
2023/04/10 13:23:38;;;;;;;6.20;4.30;;;;;;;;;;4961146;28;20754;-69
2023/04/10 13:26:06;;;;;;;7.07;5.00;;;;;;;;;;4959122;28;20281;-69
2023/04/10 13:28:32;;;;;;;5.50;4.23;;;;;;;;;;4961348;28;20240;-72
2023/04/10 13:31:00;;;;;;;8.23;4.57;;;;;;;;;;4957488;28;20565;-69
2023/04/10 13:33:26;;;;;;;6.03;4.67;;;;;;;;;;4953512;28;20205;-69
2023/04/10 13:35:52;;;;;;;6.97;4.47;;;;;;;;;;4948258;28;20221;-69
2023/04/10 13:38:18;;;;;;;6.40;4.37;;;;;;;;;;4960323;28;20293;-68
2023/04/10 13:40:44;;;;;;;5.97;4.33;;;;;;;;;;4950874;28;20213;-69
2023/04/10 13:43:12;;;;;;;7.23;4.77;;;;;;;;;;4953048;28;20211;-69
2023/04/10 13:45:39;;;;;;;7.10;4.60;;;;;;;;;;4949090;28;20218;-69
2023/04/10 13:48:11;;;;;;;7.27;4.13;;;;;;;;;;4955978;28;20242;-68
2023/04/10 13:50:38;;;;;;;5.67;4.60;;;;;;;;;;4943179;28;20217;-68
2023/04/10 13:53:06;;;;;;;6.53;4.53;;;;;;;;;;4945354;28;20610;-69
2023/04/10 13:55:35;;;;;;;5.30;4.23;;;;;;;;;;4942191;28;20663;-69
2023/04/10 13:58:01;;;;;;;5.87;4.80;;;;;;;;;;4950384;28;20234;-70
2023/04/10 14:00:28;;;;;;;7.43;4.73;;;;;;;;;;4958422;28;20272;-69
2023/04/10 14:02:55;;;;;;;7.10;4.80;;;;;;;;;;4949025;28;20720;-69
2023/04/10 14:05:21;;;;;;;5.73;4.33;;;;;;;;;;4935117;28;20217;-71
2023/04/10 14:07:50;;;;;;;8.30;4.60;;;;;;;;;;4959476;28;20732;-71
2023/04/10 14:10:18;;;;;;;6.20;4.53;;;;;;;;;;4961087;28;20705;-71
2023/04/10 14:12:44;;;;;;;6.33;4.87;;;;;;;;;;4950980;28;20213;-70
2023/04/10 14:15:11;;;;;;;5.70;4.20;;;;;;;;;;4950568;28;20241;-72
2023/04/10 14:17:38;;;;;;;6.10;4.17;;;;;;;;;;4955652;28;20787;-69
2023/04/10 14:20:05;;;;;;;7.67;4.90;;;;;;;;;;4953697;28;20310;-69
2023/04/10 14:22:35;;;;;;;6.63;4.47;;;;;;;;;;4929901;28;20246;-69
2023/04/10 14:25:01;;;;;;;6.73;5.00;;;;;;;;;;4945316;28;20201;-69
2023/04/10 14:27:27;;;;;;;6.63;4.47;;;;;;;;;;4956676;28;20418;-69
2023/04/10 14:29:54;;;;;;;16.97;10.23;;;;;;;;;;4956605;28;20207;-68
2023/04/10 14:32:20;;;;;;;7.00;4.37;;;;;;;;;;4951158;28;20253;-69
2023/04/10 14:34:48;;;;;;;4.90;4.00;;;;;;;;;;4946443;28;20222;-69
2023/04/10 14:37:15;;;;;;;5.10;3.97;;;;;;;;;;4952718;28;20244;-68
2023/04/10 14:39:41;;;;;;;5.37;4.03;;;;;;;;;;4954548;28;20245;-68
2023/04/10 14:42:13;;;;;;;9.00;6.50;;;;;;;;;;4954220;28;20248;-69
2023/04/10 14:44:44;;;;;;;6.70;4.67;;;;;;;;;;4955095;28;20214;-69